createdAt,value
2022-11-04T00:01:45.878Z,7.40
2022-11-04T00:04:13.163Z,10.43
2022-11-04T00:06:39.971Z,9.60
2022-11-04T00:09:08.513Z,7.50
2022-11-04T00:11:53.609Z,10.60
2022-11-04T00:14:19.964Z,10.07
2022-11-04T00:17:04.757Z,5.80
2022-11-04T00:19:50.087Z,6.35
2022-11-04T00:22:49.084Z,11.55
2022-11-04T00:25:34.610Z,10.25
2022-11-04T00:28:29.106Z,11.73
2022-11-04T00:30:56.639Z,9.27
2022-11-04T00:33:29.034Z,11.23
2022-11-04T00:35:56.757Z,5.75
2022-11-04T00:38:24.110Z,11.48
2022-11-04T00:40:50.486Z,11.63
2022-11-04T00:43:16.873Z,10.52
2022-11-04T00:45:43.469Z,6.90
2022-11-04T00:48:10.312Z,9.18
2022-11-04T00:50:39.560Z,8.77
2022-11-04T00:53:06.299Z,12.65
2022-11-04T00:55:32.893Z,9.20
2022-11-04T00:57:59.450Z,9.30
2022-11-04T01:00:25.824Z,7.78
2022-11-04T01:02:52.191Z,10.32
2022-11-04T01:05:18.547Z,9.38
2022-11-04T01:07:44.869Z,9.13
2022-11-04T01:10:11.441Z,8.90
2022-11-04T01:12:37.798Z,11.80
2022-11-04T01:15:04.396Z,7.68
2022-11-04T01:17:30.898Z,10.93
2022-11-04T01:19:57.262Z,10.35
2022-11-04T01:22:23.640Z,6.63
2022-11-04T01:24:50.133Z,11.82
2022-11-04T01:27:16.632Z,13.00
2022-11-04T01:29:43.220Z,7.45
2022-11-04T01:32:10.951Z,15.07
2022-11-04T01:34:42.394Z,8.43
2022-11-04T01:37:10.291Z,11.50
2022-11-04T01:39:36.660Z,10.40
2022-11-04T01:44:42.837Z,7.50
2022-11-04T01:47:16.090Z,14.38
2022-11-04T01:49:43.709Z,10.90
2022-11-04T01:52:15.353Z,12.18
2022-11-04T01:54:43.150Z,8.52
2022-11-04T01:57:15.011Z,15.73
2022-11-04T01:59:42.148Z,11.35
2022-11-04T02:02:08.582Z,9.35
2022-11-04T02:04:35.256Z,9.45
2022-11-04T02:07:03.622Z,11.77
2022-11-04T02:09:31.016Z,10.63
2022-11-04T02:12:16.088Z,16.17
2022-11-04T02:14:42.713Z,13.63
2022-11-04T02:17:15.169Z,15.10
2022-11-04T02:19:44.533Z,13.20
2022-11-04T02:22:13.992Z,8.43
2022-11-04T02:24:43.332Z,16.35
2022-11-04T02:27:26.012Z,10.65
2022-11-04T02:29:55.404Z,13.52
2022-11-04T02:32:31.163Z,12.95
2022-11-04T02:35:08.195Z,12.63
2022-11-04T02:37:54.913Z,9.82
2022-11-04T02:40:24.603Z,9.63
2022-11-04T02:42:57.077Z,13.93
2022-11-04T02:45:30.762Z,16.73
2022-11-04T02:48:08.409Z,13.63
2022-11-04T02:50:39.913Z,15.38
2022-11-04T02:53:11.026Z,15.82
2022-11-04T02:55:43.865Z,14.20
2022-11-04T02:58:19.772Z,15.48
2022-11-04T03:00:46.910Z,20.63
2022-11-04T03:03:15.740Z,16.05
2022-11-04T03:05:44.615Z,13.18
2022-11-04T03:08:20.495Z,18.35
2022-11-04T03:10:50.988Z,17.17
2022-11-04T03:13:20.430Z,16.38
2022-11-04T03:15:49.369Z,13.15
2022-11-04T03:18:15.719Z,18.40
2022-11-04T03:20:42.997Z,17.13
2022-11-04T03:23:11.045Z,18.05
2022-11-04T03:25:39.302Z,20.60
2022-11-04T03:28:08.869Z,19.27
2022-11-04T03:30:39.188Z,15.10
2022-11-04T03:33:17.753Z,18.75
2022-11-04T03:35:44.164Z,16.05
2022-11-04T03:38:10.516Z,16.02
2022-11-04T03:40:36.925Z,17.42
2022-11-04T03:43:09.648Z,18.73
2022-11-04T03:45:36.713Z,18.80
2022-11-04T03:48:03.539Z,20.42
2022-11-04T03:50:33.826Z,17.13
2022-11-04T03:53:00.300Z,17.35
2022-11-04T03:55:45.575Z,13.35
2022-11-04T03:58:30.659Z,17.15
2022-11-04T04:01:17.422Z,13.52
2022-11-04T04:03:52.168Z,11.52
2022-11-04T04:06:20.853Z,15.15
2022-11-04T04:08:49.785Z,13.35
2022-11-04T04:11:21.649Z,15.65
2022-11-04T04:13:53.730Z,13.82
2022-11-04T04:16:41.475Z,16.17
2022-11-04T04:19:18.913Z,14.60
2022-11-04T04:21:45.238Z,13.73
2022-11-04T04:24:30.425Z,20.00
2022-11-04T04:27:15.841Z,14.90
2022-11-04T04:29:44.233Z,16.05
2022-11-04T04:32:10.724Z,10.95
2022-11-04T04:34:37.498Z,12.30
2022-11-04T04:37:06.636Z,13.32
2022-11-04T04:39:57.824Z,12.00
2022-11-04T04:45:22.549Z,11.35
2022-11-04T04:47:48.949Z,12.82
2022-11-04T04:50:16.518Z,14.05
2022-11-04T04:52:50.372Z,12.77
2022-11-04T04:55:17.178Z,13.40
2022-11-04T04:57:43.834Z,12.45
2022-11-04T05:00:12.715Z,11.40
2022-11-04T05:02:39.109Z,11.55
2022-11-04T05:05:05.775Z,14.60
2022-11-04T05:07:32.226Z,15.90
2022-11-04T05:09:58.560Z,13.38
2022-11-04T05:12:24.932Z,15.48
2022-11-04T05:14:51.275Z,12.48
2022-11-04T05:17:17.636Z,10.85
2022-11-04T05:19:44.008Z,11.13
2022-11-04T05:22:10.340Z,12.00
2022-11-04T05:24:36.691Z,10.05
2022-11-04T05:27:03.045Z,9.85
2022-11-04T05:29:29.385Z,11.05
2022-11-04T05:31:55.853Z,10.73
2022-11-04T05:34:22.169Z,17.65
2022-11-04T05:36:48.551Z,11.25
2022-11-04T05:39:14.928Z,15.13
2022-11-04T05:41:41.547Z,9.18
2022-11-04T05:44:09.636Z,11.93
2022-11-04T05:46:36.208Z,13.48
2022-11-04T05:49:02.871Z,11.73
2022-11-04T05:51:32.183Z,10.82
2022-11-04T05:53:58.566Z,9.15
2022-11-04T05:56:25.007Z,13.52
2022-11-04T05:58:51.397Z,11.98
2022-11-04T06:01:25.676Z,9.40
2022-11-04T06:03:52.598Z,9.73
2022-11-04T06:06:19.138Z,10.60
2022-11-04T06:08:45.552Z,12.05
2022-11-04T06:11:12.288Z,12.07
2022-11-04T06:13:38.652Z,9.88
2022-11-04T06:16:05.074Z,11.52
2022-11-04T06:18:31.409Z,13.23
2022-11-04T06:21:22.286Z,11.60
2022-11-04T06:23:48.793Z,11.30
2022-11-04T06:26:15.179Z,13.93
2022-11-04T06:28:41.508Z,10.80
2022-11-04T06:31:09.299Z,9.85
2022-11-04T06:33:37.213Z,14.90
2022-11-04T06:36:04.779Z,11.75
2022-11-04T06:38:32.281Z,10.13
2022-11-04T06:40:58.855Z,10.52
2022-11-04T06:43:25.511Z,14.73
2022-11-04T06:45:57.447Z,10.15
2022-11-04T06:48:24.000Z,12.80
2022-11-04T06:50:50.463Z,12.95
2022-11-04T06:53:16.846Z,12.55
2022-11-04T06:55:43.518Z,12.75
2022-11-04T06:58:10.038Z,13.85
2022-11-04T07:00:36.540Z,13.57
2022-11-04T07:03:02.951Z,11.25
2022-11-04T07:05:29.493Z,18.85
2022-11-04T07:07:56.674Z,12.25
2022-11-04T07:10:23.053Z,13.25
2022-11-04T07:12:49.454Z,12.95
2022-11-04T07:15:15.918Z,14.23
2022-11-04T07:17:43.304Z,14.77
2022-11-04T07:20:13.216Z,10.95
2022-11-04T07:22:39.729Z,13.20
2022-11-04T07:25:06.383Z,15.65
2022-11-04T07:27:32.786Z,19.00
2022-11-04T07:29:59.269Z,15.45
2022-11-04T07:32:25.789Z,12.32
2022-11-04T07:34:52.338Z,8.18
2022-11-04T07:37:18.686Z,11.77
2022-11-04T07:39:45.221Z,9.20
2022-11-04T07:42:11.648Z,13.25
2022-11-04T07:44:38.160Z,11.98
2022-11-04T07:47:06.597Z,11.82
2022-11-04T07:49:35.684Z,10.07
2022-11-04T07:52:02.088Z,11.93
2022-11-04T07:54:28.928Z,8.18
2022-11-04T07:56:55.347Z,14.98
2022-11-04T07:59:21.708Z,9.40
2022-11-04T08:01:48.253Z,11.75
2022-11-04T08:04:14.662Z,16.45
2022-11-04T08:06:41.091Z,11.93
2022-11-04T08:09:07.565Z,10.18
2022-11-04T08:11:34.307Z,15.18
2022-11-04T08:14:02.624Z,16.02
2022-11-04T08:16:34.153Z,17.67
2022-11-04T08:19:04.508Z,11.63
2022-11-04T08:21:32.211Z,11.98
2022-11-04T08:23:58.643Z,12.00
2022-11-04T08:26:25.056Z,10.45
2022-11-04T08:28:52.180Z,13.10
2022-11-04T08:31:28.817Z,11.77
2022-11-04T08:33:55.699Z,12.70
2022-11-04T08:36:26.917Z,12.55
2022-11-04T08:38:53.681Z,9.32
2022-11-04T08:41:21.848Z,11.48
2022-11-04T08:43:48.648Z,9.93
2022-11-04T08:46:17.318Z,10.20
2022-11-04T08:48:43.974Z,8.40
2022-11-04T08:51:17.148Z,13.35
2022-11-04T08:53:43.545Z,16.50
2022-11-04T08:56:11.029Z,12.25
2022-11-04T08:58:37.398Z,11.98
2022-11-04T09:01:04.597Z,11.57
2022-11-04T09:03:31.041Z,9.48
2022-11-04T09:05:58.077Z,11.07
2022-11-04T09:08:24.508Z,9.70
2022-11-04T09:10:51.329Z,13.00
2022-11-04T09:13:17.735Z,13.77
2022-11-04T09:15:44.508Z,15.07
2022-11-04T09:18:10.941Z,16.60
2022-11-04T09:20:43.406Z,15.05
2022-11-04T09:23:10.184Z,12.05
2022-11-04T09:25:37.043Z,11.13
2022-11-04T09:28:04.780Z,9.65
2022-11-04T09:30:31.344Z,12.65
2022-11-04T09:32:58.316Z,15.82
2022-11-04T09:35:24.710Z,13.32
2022-11-04T09:37:52.496Z,15.32
2022-11-04T09:40:20.985Z,13.60
2022-11-04T09:42:57.370Z,16.15
2022-11-04T09:45:28.280Z,11.05
2022-11-04T09:50:23.586Z,12.38
2022-11-04T09:53:03.025Z,11.82
2022-11-04T09:55:32.574Z,12.98
2022-11-04T09:57:59.224Z,10.15
2022-11-04T10:00:26.322Z,10.68
2022-11-04T10:03:11.765Z,11.70
2022-11-04T10:05:38.298Z,14.35
2022-11-04T10:08:36.682Z,15.32
2022-11-04T10:11:33.908Z,11.30
2022-11-04T10:14:18.753Z,15.05
2022-11-04T10:16:45.080Z,12.50
2022-11-04T10:19:14.413Z,14.60
2022-11-04T10:21:49.404Z,13.18
2022-11-04T10:24:15.739Z,12.70
2022-11-04T10:26:44.954Z,9.35
2022-11-04T10:29:14.920Z,12.93
2022-11-04T10:31:42.936Z,13.30
2022-11-04T10:34:15.831Z,12.45
2022-11-04T10:36:42.683Z,11.25
2022-11-04T10:39:18.341Z,11.35
2022-11-04T10:41:47.535Z,14.13
2022-11-04T10:44:13.847Z,19.13
2022-11-04T10:46:48.946Z,15.20
2022-11-04T10:49:33.930Z,14.18
2022-11-04T10:52:00.355Z,19.40
2022-11-04T10:54:27.125Z,13.55
2022-11-04T10:56:55.083Z,11.18
2022-11-04T10:59:24.836Z,16.17
2022-11-04T11:01:52.992Z,14.30
2022-11-04T11:04:30.167Z,14.68
2022-11-04T11:06:57.596Z,13.48
2022-11-04T11:09:54.106Z,16.77
2022-11-04T11:12:49.985Z,16.80
2022-11-04T11:15:35.947Z,12.48
2022-11-04T11:18:10.385Z,12.88
2022-11-04T11:20:38.118Z,11.40
2022-11-04T11:23:10.336Z,10.63
2022-11-04T11:25:42.486Z,14.85
2022-11-04T11:28:29.054Z,12.73
2022-11-04T11:30:57.760Z,13.25
2022-11-04T11:33:31.959Z,18.92
2022-11-04T11:36:00.112Z,14.93
2022-11-04T11:38:28.024Z,13.18
2022-11-04T11:41:23.911Z,18.10
2022-11-04T11:43:51.728Z,20.45
2022-11-04T11:46:29.011Z,11.80
2022-11-04T11:49:01.403Z,14.10
2022-11-04T11:51:32.018Z,18.13
2022-11-04T11:54:17.954Z,16.08
2022-11-04T11:57:12.023Z,13.93
2022-11-04T12:02:43.178Z,13.50
2022-11-04T12:11:02.518Z,12.07
2022-11-04T12:13:32.112Z,15.93
2022-11-04T12:16:09.436Z,12.93
2022-11-04T12:18:42.690Z,18.63
2022-11-04T12:21:19.140Z,17.05
2022-11-04T12:23:45.563Z,16.40
2022-11-04T12:26:14.996Z,20.75
2022-11-04T12:28:59.720Z,13.18
2022-11-04T13:20:45.401Z,12.38
2022-11-04T13:23:20.824Z,12.60
2022-11-04T13:25:48.134Z,15.45
2022-11-04T13:44:27.425Z,16.58
2022-11-04T13:46:55.521Z,14.40
2022-11-04T13:49:30.624Z,17.13
2022-11-04T13:52:07.041Z,13.10
2022-11-04T13:54:35.832Z,13.05
2022-11-04T13:57:18.866Z,16.13
2022-11-04T14:00:04.528Z,15.52
2022-11-04T14:02:38.644Z,15.35
2022-11-04T14:05:23.949Z,34.47
2022-11-04T14:07:59.544Z,15.25
2022-11-04T14:10:46.324Z,15.27
2022-11-04T14:13:24.863Z,15.55
2022-11-04T14:16:04.904Z,17.13
2022-11-04T14:18:35.628Z,13.35
2022-11-04T14:21:01.951Z,15.25
2022-11-04T14:23:30.761Z,20.70
2022-11-04T14:26:01.912Z,18.45
2022-11-04T14:28:29.934Z,15.68
2022-11-04T14:31:12.544Z,15.27
2022-11-04T14:33:51.812Z,13.23
2022-11-04T14:36:21.142Z,15.95
2022-11-04T14:39:05.927Z,16.45
2022-11-04T14:41:41.229Z,20.55
2022-11-04T14:44:09.063Z,17.30
2022-11-04T14:46:40.404Z,14.68
2022-11-04T14:49:06.875Z,14.82
2022-11-04T14:51:40.029Z,16.77
2022-11-04T14:54:25.540Z,21.50
2022-11-04T14:56:52.386Z,20.08
2022-11-04T14:59:27.417Z,20.48
2022-11-04T15:01:55.073Z,22.02
2022-11-04T15:04:26.998Z,22.50
2022-11-04T15:07:00.771Z,22.40
2022-11-04T15:09:28.504Z,20.85
2022-11-04T15:12:33.766Z,20.05
2022-11-04T15:15:00.206Z,21.33
2022-11-04T15:17:29.182Z,19.40
2022-11-04T15:19:56.857Z,19.77
2022-11-04T15:22:23.892Z,23.58
2022-11-04T15:24:53.347Z,26.90
2022-11-04T15:27:23.740Z,20.92
2022-11-04T15:29:57.115Z,25.40
2022-11-04T15:32:24.191Z,23.48
2022-11-04T15:34:50.840Z,23.33
2022-11-04T15:37:17.347Z,22.70
2022-11-04T15:39:44.806Z,25.67
2022-11-04T15:42:33.528Z,23.13
2022-11-04T15:44:59.977Z,26.80
2022-11-04T15:47:28.306Z,19.63
2022-11-04T15:50:03.093Z,19.60
2022-11-04T15:52:29.947Z,22.75
2022-11-04T15:55:00.285Z,22.20
2022-11-04T15:57:29.676Z,25.98
2022-11-04T16:00:08.317Z,23.33
2022-11-04T16:02:34.739Z,26.38
2022-11-04T16:05:09.948Z,23.33
2022-11-04T16:07:40.782Z,24.27
2022-11-04T16:10:25.014Z,22.05
2022-11-04T16:12:59.172Z,24.00
2022-11-04T16:15:33.044Z,21.30
2022-11-04T16:17:59.661Z,26.50
2022-11-04T16:20:26.048Z,21.15
2022-11-04T16:22:57.652Z,22.83
2022-11-04T16:25:24.230Z,22.48
2022-11-04T16:27:50.811Z,25.67
2022-11-04T16:30:20.871Z,20.73
2022-11-04T16:32:48.772Z,23.80
2022-11-04T16:35:19.831Z,26.50
2022-11-04T16:40:12.946Z,24.35
2022-11-04T16:42:39.441Z,18.55
2022-11-04T16:45:06.855Z,22.42
2022-11-04T16:47:34.123Z,24.55
2022-11-04T16:50:01.418Z,22.65
2022-11-04T16:52:28.342Z,21.77
2022-11-04T16:54:57.396Z,18.45
2022-11-04T16:57:24.489Z,23.15
2022-11-04T16:59:50.812Z,26.17
2022-11-04T17:02:28.517Z,18.48
2022-11-04T17:04:55.098Z,19.88
2022-11-04T17:07:34.945Z,22.95
2022-11-04T17:10:12.807Z,21.83
2022-11-04T17:12:39.131Z,22.48
2022-11-04T17:15:05.710Z,22.35
2022-11-04T17:17:32.044Z,19.25
2022-11-04T17:19:58.402Z,25.50
2022-11-04T17:22:25.367Z,21.67
2022-11-04T17:24:51.760Z,24.30
2022-11-04T17:27:18.096Z,21.85
2022-11-04T17:29:44.537Z,18.63
2022-11-04T17:32:10.907Z,24.38
2022-11-04T17:34:37.221Z,21.15
2022-11-04T17:37:03.588Z,22.05
2022-11-04T17:39:29.974Z,20.75
2022-11-04T17:42:14.997Z,23.05
2022-11-04T17:44:41.358Z,20.52
2022-11-04T17:47:07.671Z,22.70
2022-11-04T17:49:35.599Z,19.38
2022-11-04T17:52:01.922Z,19.98
2022-11-04T17:54:29.685Z,21.80
2022-11-04T17:56:56.533Z,17.77
2022-11-04T17:59:23.151Z,18.25
2022-11-04T18:01:49.622Z,20.00
2022-11-04T18:04:17.573Z,15.90
2022-11-04T18:06:44.691Z,21.90
2022-11-04T18:09:11.809Z,20.90
2022-11-04T18:11:56.845Z,19.77
2022-11-04T18:14:23.378Z,18.85
2022-11-04T18:16:50.357Z,22.20
2022-11-04T18:19:20.616Z,22.63
2022-11-04T18:21:47.564Z,22.88
2022-11-04T18:24:13.959Z,18.45
2022-11-04T18:26:40.801Z,21.02
2022-11-04T18:29:07.409Z,16.55
2022-11-04T18:31:35.633Z,20.13
2022-11-04T18:34:04.075Z,21.65
2022-11-04T18:36:31.088Z,19.80
2022-11-04T18:38:57.445Z,19.80
2022-11-04T18:41:23.832Z,17.13
2022-11-04T18:43:50.387Z,21.35
2022-11-04T18:46:17.644Z,15.93
2022-11-04T18:48:47.708Z,17.00
2022-11-04T18:51:14.042Z,19.43
2022-11-04T18:53:40.378Z,14.77
2022-11-04T18:56:09.124Z,17.90
2022-11-04T18:58:36.494Z,15.35
2022-11-04T19:01:11.005Z,14.98
2022-11-04T19:03:37.523Z,18.15
2022-11-04T19:06:11.459Z,16.55
2022-11-04T19:08:42.306Z,13.05
2022-11-04T19:11:13.663Z,30.90
2022-11-04T19:13:40.088Z,20.15
2022-11-04T19:16:11.509Z,17.00
2022-11-04T19:18:38.702Z,14.38
2022-11-04T19:21:06.474Z,16.35
2022-11-04T19:23:33.121Z,18.70
2022-11-04T19:26:02.355Z,15.07
2022-11-04T19:28:40.401Z,16.92
2022-11-04T19:31:14.973Z,19.40
2022-11-04T19:33:41.597Z,16.83
2022-11-04T19:36:09.370Z,16.98
2022-11-04T19:38:36.089Z,16.38
2022-11-04T19:41:31.433Z,17.65
2022-11-04T19:43:57.855Z,15.05
2022-11-04T19:46:24.310Z,14.27
2022-11-04T19:48:50.795Z,12.73
2022-11-04T19:51:17.152Z,12.95
2022-11-04T19:53:43.508Z,14.70
2022-11-04T19:56:16.953Z,14.38
2022-11-04T19:58:44.056Z,12.98
2022-11-04T20:01:11.479Z,12.30
2022-11-04T20:03:37.965Z,14.18
2022-11-04T20:06:04.734Z,12.45
2022-11-04T20:08:31.098Z,15.13
2022-11-04T20:11:01.355Z,11.93
2022-11-04T20:13:48.881Z,10.38
2022-11-04T20:16:24.379Z,17.48
2022-11-04T20:18:52.019Z,12.85
2022-11-04T20:21:19.607Z,15.13
2022-11-04T20:23:45.921Z,15.85
2022-11-04T20:26:17.575Z,13.77
2022-11-04T20:28:46.457Z,12.43
2022-11-04T20:31:14.524Z,10.82
2022-11-04T20:33:44.616Z,11.65
2022-11-04T20:36:11.139Z,10.50
2022-11-04T20:38:38.490Z,12.45
2022-11-04T20:41:09.545Z,10.32
2022-11-04T20:43:37.134Z,11.18
2022-11-04T20:46:05.010Z,9.98
2022-11-04T20:48:31.438Z,9.32
2022-11-04T20:50:57.846Z,11.00
2022-11-04T20:53:24.209Z,10.85
2022-11-04T20:55:50.527Z,8.48
2022-11-04T20:58:16.846Z,9.18
2022-11-04T21:00:43.195Z,10.52
2022-11-04T21:03:09.574Z,11.38
2022-11-04T21:05:35.940Z,9.68
2022-11-04T21:08:04.112Z,9.85
2022-11-04T21:10:30.434Z,14.68
2022-11-04T21:12:56.887Z,6.47
2022-11-04T21:15:41.544Z,11.65
2022-11-04T21:18:09.443Z,7.97
2022-11-04T21:20:38.976Z,8.70
2022-11-04T21:23:05.892Z,9.15
2022-11-04T21:25:38.356Z,8.10
2022-11-04T21:28:04.904Z,9.95
2022-11-04T21:30:34.560Z,4.90
2022-11-04T21:33:01.040Z,6.35
2022-11-04T21:35:27.359Z,6.50
2022-11-04T21:37:53.704Z,6.32
2022-11-04T21:40:20.178Z,2.97
2022-11-04T21:42:46.535Z,6.60
2022-11-04T21:45:12.978Z,5.35
2022-11-04T21:47:39.940Z,9.27
2022-11-04T21:50:06.648Z,5.72
2022-11-04T21:52:33.023Z,8.10
2022-11-04T21:54:59.414Z,5.47
2022-11-04T21:57:25.741Z,6.30
2022-11-04T21:59:52.054Z,4.90
2022-11-04T22:02:18.574Z,5.28
2022-11-04T22:04:44.972Z,6.07
2022-11-04T22:07:11.319Z,10.25
2022-11-04T22:09:37.744Z,5.50
2022-11-04T22:12:04.223Z,5.70
2022-11-04T22:14:30.628Z,4.78
2022-11-04T22:16:56.936Z,6.88
2022-11-04T22:19:23.329Z,5.53
2022-11-04T22:21:49.837Z,7.18
2022-11-04T22:24:17.335Z,4.85
2022-11-04T22:26:44.335Z,4.35
2022-11-04T22:29:10.863Z,4.65
2022-11-04T22:31:39.159Z,5.60
2022-11-04T22:34:05.545Z,8.77
2022-11-04T22:36:32.687Z,8.02
2022-11-04T22:38:59.188Z,6.97
2022-11-04T22:41:27.022Z,4.50
2022-11-04T22:43:53.460Z,4.93
2022-11-04T22:46:26.165Z,10.00
2022-11-04T22:48:52.716Z,3.17
2022-11-04T22:51:19.132Z,4.70
2022-11-04T22:53:48.026Z,5.75
2022-11-04T22:58:43.078Z,7.63
2022-11-04T23:01:10.740Z,7.97
2022-11-04T23:03:37.383Z,6.03
2022-11-04T23:06:04.452Z,6.40
2022-11-04T23:08:31.888Z,5.78
2022-11-04T23:11:18.157Z,5.40
2022-11-04T23:14:14.391Z,10.25
2022-11-04T23:17:04.444Z,6.97
2022-11-04T23:19:31.146Z,9.50
2022-11-04T23:22:16.489Z,4.07
2022-11-04T23:25:01.536Z,8.48
2022-11-04T23:27:46.343Z,8.93
2022-11-04T23:30:24.064Z,5.75
2022-11-04T23:32:51.768Z,4.95
2022-11-04T23:35:38.827Z,3.97
2022-11-04T23:38:05.485Z,5.55
2022-11-04T23:40:31.996Z,5.80
2022-11-04T23:42:58.513Z,9.00
2022-11-04T23:45:43.549Z,10.05
2022-11-04T23:48:28.866Z,3.50
2022-11-04T23:51:14.691Z,3.38
2022-11-04T23:53:59.509Z,4.53
2022-11-04T23:56:44.761Z,5.78
2022-11-04T23:59:30.496Z,5.13
